createdAt,value
2022-10-23T00:01:45.006Z,6.38
2022-10-23T00:04:18.365Z,5.95
2022-10-23T00:06:46.472Z,5.93
2022-10-23T00:09:17.045Z,5.95
2022-10-23T00:14:17.326Z,6.80
2022-10-23T00:16:44.804Z,6.68
2022-10-23T00:19:12.335Z,6.10
2022-10-23T00:21:39.801Z,6.35
2022-10-23T00:26:40.856Z,6.35
2022-10-23T00:29:09.095Z,6.55
2022-10-23T00:31:37.002Z,5.70
2022-10-23T00:34:08.563Z,6.63
2022-10-23T00:36:37.355Z,5.50
2022-10-23T00:39:05.591Z,6.22
2022-10-23T00:41:33.139Z,5.35
2022-10-23T00:44:06.487Z,6.10
2022-10-23T00:46:34.547Z,5.90
2022-10-23T00:49:03.036Z,5.75
2022-10-23T00:51:36.352Z,5.80
2022-10-23T00:54:24.019Z,5.78
2022-10-23T00:56:56.938Z,5.57
2022-10-23T00:59:24.574Z,5.90
2022-10-23T01:01:52.589Z,5.75
2022-10-23T01:04:20.657Z,6.20
2022-10-23T01:06:54.184Z,6.57
2022-10-23T01:09:59.299Z,6.22
2022-10-23T01:12:44.698Z,6.43
2022-10-23T01:15:45.998Z,6.55
2022-10-23T01:19:02.554Z,8.48
2022-10-23T01:21:55.886Z,19.88
2022-10-23T01:24:37.263Z,9.75
2022-10-23T01:27:13.769Z,9.02
2022-10-23T01:30:07.489Z,7.68
2022-10-23T01:32:48.608Z,7.88
2022-10-23T01:35:34.457Z,9.52
2022-10-23T01:38:35.031Z,7.32
2022-10-23T01:41:17.264Z,7.93
2022-10-23T01:44:12.342Z,8.40
2022-10-23T01:46:41.856Z,7.97
2022-10-23T01:49:13.181Z,6.40
2022-10-23T01:51:45.461Z,6.10
2022-10-23T01:54:15.909Z,6.30
2022-10-23T01:56:46.982Z,6.38
2022-10-23T01:59:21.063Z,7.28
2022-10-23T02:01:52.402Z,9.40
2022-10-23T02:04:27.321Z,8.02
2022-10-23T02:06:55.041Z,6.55
2022-10-23T02:09:22.749Z,6.63
2022-10-23T02:15:28.176Z,5.85
2022-10-23T02:18:22.502Z,6.95
2022-10-23T02:21:05.343Z,6.43
2022-10-23T02:23:34.655Z,6.28
2022-10-23T02:26:29.614Z,6.65
2022-10-23T02:29:36.094Z,6.32
2022-10-23T02:32:03.567Z,6.15
2022-10-23T02:34:31.625Z,7.10
2022-10-23T02:36:59.238Z,6.40
2022-10-23T02:39:29.087Z,5.93
2022-10-23T02:42:05.961Z,6.07
2022-10-23T02:44:43.402Z,5.97
2022-10-23T02:47:20.303Z,5.97
2022-10-23T02:49:53.487Z,6.97
2022-10-23T02:52:30.086Z,6.57
2022-10-23T02:55:22.212Z,6.28
2022-10-23T02:58:17.814Z,6.30
2022-10-23T03:01:03.674Z,5.60
2022-10-23T03:03:36.329Z,5.30
2022-10-23T03:06:04.409Z,6.47
2022-10-23T03:08:42.355Z,6.45
2022-10-23T03:11:09.921Z,6.00
2022-10-23T03:13:37.318Z,6.45
2022-10-23T03:16:04.919Z,6.68
2022-10-23T03:18:35.356Z,6.80
2022-10-23T03:21:03.488Z,6.45
2022-10-23T03:26:04.915Z,6.50
2022-10-23T03:28:40.362Z,6.28
2022-10-23T03:31:08.067Z,6.35
2022-10-23T03:33:35.682Z,6.88
2022-10-23T03:36:09.765Z,6.60
2022-10-23T03:38:37.577Z,5.43
2022-10-23T03:41:06.475Z,6.07
2022-10-23T03:43:33.955Z,5.72
2022-10-23T03:46:02.234Z,5.60
2022-10-23T03:48:29.730Z,5.43
2022-10-23T03:50:59.205Z,6.32
2022-10-23T03:53:26.551Z,5.85
2022-10-23T03:55:53.806Z,6.38
2022-10-23T03:58:21.608Z,6.10
2022-10-23T04:00:49.867Z,5.85
2022-10-23T04:03:17.234Z,6.13
2022-10-23T04:05:44.823Z,5.85
2022-10-23T04:08:15.225Z,5.75
2022-10-23T04:10:45.347Z,6.35
2022-10-23T04:13:12.828Z,6.38
2022-10-23T04:15:42.765Z,5.38
2022-10-23T04:18:10.407Z,5.57
2022-10-23T04:20:38.757Z,5.68
2022-10-23T04:23:06.360Z,6.07
2022-10-23T04:25:35.198Z,5.35
2022-10-23T04:28:04.368Z,5.97
2022-10-23T04:30:39.682Z,5.47
2022-10-23T04:33:10.427Z,7.10
2022-10-23T04:35:37.926Z,7.40
2022-10-23T04:38:05.261Z,6.70
2022-10-23T04:40:32.810Z,6.30
2022-10-23T04:43:00.534Z,5.63
2022-10-23T04:45:35.761Z,6.13
2022-10-23T04:48:03.890Z,6.28
2022-10-23T04:51:12.593Z,6.30
2022-10-23T04:54:00.179Z,6.18
2022-10-23T04:56:46.411Z,6.05
2022-10-23T04:59:20.181Z,6.60
2022-10-23T05:01:48.029Z,6.45
2022-10-23T05:04:16.605Z,7.35
2022-10-23T05:10:21.565Z,6.07
2022-10-23T05:13:09.144Z,6.35
2022-10-23T05:15:38.389Z,6.57
2022-10-23T05:18:12.500Z,6.35
2022-10-23T05:20:40.702Z,6.50
2022-10-23T05:23:13.554Z,6.82
2022-10-23T05:25:44.142Z,5.95
2022-10-23T05:28:18.669Z,5.47
2022-10-23T05:30:46.765Z,6.78
2022-10-23T05:33:16.804Z,6.30
2022-10-23T05:35:45.929Z,6.32
2022-10-23T05:38:16.731Z,6.47
2022-10-23T05:40:45.167Z,6.53
2022-10-23T05:43:20.146Z,6.78
2022-10-23T05:45:56.538Z,7.00
2022-10-23T05:48:53.774Z,5.78
2022-10-23T05:51:40.755Z,7.10
2022-10-23T05:54:29.027Z,7.97
2022-10-23T05:57:05.350Z,7.25
2022-10-23T05:59:42.839Z,9.65
2022-10-23T06:02:42.676Z,7.03
2022-10-23T06:05:34.471Z,7.25
2022-10-23T06:08:21.550Z,6.82
2022-10-23T06:13:19.591Z,7.35
2022-10-23T06:15:49.464Z,7.72
2022-10-23T06:18:20.915Z,6.68
2022-10-23T06:21:17.061Z,7.03
2022-10-23T06:23:47.218Z,7.35
2022-10-23T06:26:34.944Z,6.32
2022-10-23T06:29:08.772Z,6.68
2022-10-23T06:31:37.150Z,6.78
2022-10-23T06:34:06.386Z,6.20
2022-10-23T06:36:33.969Z,7.57
2022-10-23T06:39:11.271Z,9.93
2022-10-23T06:41:58.861Z,11.45
2022-10-23T06:44:44.775Z,7.18
2022-10-23T06:50:11.754Z,6.32
2022-10-23T06:52:48.407Z,7.20
2022-10-23T06:55:22.101Z,7.22
2022-10-23T06:57:51.515Z,7.47
2022-10-23T07:00:24.413Z,8.77
2022-10-23T07:02:54.512Z,7.55
2022-10-23T07:05:23.284Z,7.38
2022-10-23T07:07:51.729Z,6.10
2022-10-23T07:10:25.684Z,5.38
2022-10-23T07:13:01.514Z,5.30
2022-10-23T07:15:56.530Z,5.63
2022-10-23T07:18:26.252Z,6.07
2022-10-23T07:21:20.216Z,5.82
2022-10-23T07:23:49.241Z,6.22
2022-10-23T07:26:17.424Z,6.28
2022-10-23T07:28:47.802Z,5.45
2022-10-23T07:31:24.281Z,5.88
2022-10-23T07:34:17.529Z,6.40
2022-10-23T07:36:48.160Z,6.82
2022-10-23T07:39:16.258Z,7.05
2022-10-23T07:41:52.151Z,7.15
2022-10-23T07:44:22.061Z,6.50
2022-10-23T07:46:52.238Z,6.85
2022-10-23T07:49:20.031Z,6.82
2022-10-23T07:51:51.260Z,7.53
2022-10-23T07:54:20.738Z,8.35
2022-10-23T07:57:10.078Z,6.55
2022-10-23T07:59:46.701Z,7.68
2022-10-23T08:02:18.665Z,6.97
2022-10-23T08:04:50.280Z,7.88
2022-10-23T08:07:33.204Z,9.93
2022-10-23T08:10:01.121Z,6.53
2022-10-23T08:12:30.200Z,7.40
2022-10-23T08:14:57.942Z,7.32
2022-10-23T08:17:31.532Z,7.30
2022-10-23T08:20:18.319Z,6.50
2022-10-23T08:22:49.070Z,7.35
2022-10-23T08:25:25.030Z,6.50
2022-10-23T08:27:54.096Z,6.95
2022-10-23T08:30:26.904Z,7.00
2022-10-23T08:32:55.292Z,7.20
2022-10-23T08:35:22.919Z,7.13
2022-10-23T08:37:52.052Z,6.82
2022-10-23T08:40:24.401Z,6.85
2022-10-23T08:43:31.823Z,6.88
2022-10-23T08:46:16.092Z,6.93
2022-10-23T08:49:15.689Z,9.88
2022-10-23T08:51:58.758Z,7.75
2022-10-23T08:54:39.713Z,6.38
2022-10-23T08:57:16.769Z,7.35
2022-10-23T08:59:51.017Z,8.77
2022-10-23T09:02:30.780Z,8.05
2022-10-23T09:04:59.373Z,7.00
2022-10-23T09:07:38.741Z,7.53
2022-10-23T09:10:49.317Z,6.07
2022-10-23T09:13:33.006Z,7.18
2022-10-23T09:16:24.603Z,8.35
2022-10-23T09:18:52.857Z,8.32
2022-10-23T09:21:22.467Z,8.80
2022-10-23T09:23:50.538Z,7.45
2022-10-23T09:26:20.824Z,6.10
2022-10-23T09:29:02.425Z,5.55
2022-10-23T09:31:30.422Z,6.18
2022-10-23T09:34:01.546Z,6.03
2022-10-23T09:36:29.805Z,5.95
2022-10-23T09:38:59.738Z,6.30
2022-10-23T09:41:36.020Z,5.50
2022-10-23T09:44:09.192Z,5.63
2022-10-23T09:46:39.939Z,5.82
2022-10-23T09:49:15.579Z,6.03
2022-10-23T09:52:13.484Z,5.70
2022-10-23T09:54:57.281Z,5.65
2022-10-23T09:57:44.002Z,6.38
2022-10-23T10:00:14.685Z,10.32
2022-10-23T10:05:42.849Z,5.63
2022-10-23T10:08:56.616Z,6.10
2022-10-23T10:11:39.524Z,7.05
2022-10-23T10:14:27.273Z,5.65
2022-10-23T10:17:27.152Z,5.13
2022-10-23T10:20:07.916Z,5.05
2022-10-23T10:22:35.295Z,5.22
2022-10-23T10:25:31.704Z,4.88
2022-10-23T10:28:07.583Z,6.45
2022-10-23T10:31:09.537Z,5.68
2022-10-23T10:33:39.754Z,5.40
2022-10-23T10:38:50.708Z,5.07
2022-10-23T10:41:31.337Z,5.72
2022-10-23T10:44:45.968Z,4.40
2022-10-23T10:47:38.767Z,4.68
2022-10-23T10:50:39.291Z,5.20
2022-10-23T10:54:11.359Z,11.70
2022-10-23T10:56:42.014Z,5.72
2022-10-23T10:59:21.997Z,6.47
2022-10-23T11:02:28.040Z,5.28
2022-10-23T11:05:42.079Z,6.18
2022-10-23T11:08:49.786Z,8.80
2022-10-23T11:11:38.059Z,4.90
2022-10-23T11:14:06.039Z,5.32
2022-10-23T11:16:37.813Z,14.73
2022-10-23T11:19:11.469Z,5.40
2022-10-23T11:21:53.516Z,5.65
2022-10-23T11:24:57.326Z,6.57
2022-10-23T11:28:03.415Z,5.90
2022-10-23T11:33:34.873Z,5.50
2022-10-23T11:36:07.234Z,5.47
2022-10-23T11:38:59.242Z,5.97
2022-10-23T11:41:34.312Z,5.43
2022-10-23T11:44:04.733Z,5.72
2022-10-23T11:46:38.614Z,5.97
2022-10-23T11:49:20.041Z,6.00
2022-10-23T11:51:47.552Z,5.85
2022-10-23T11:54:17.810Z,5.63
2022-10-23T11:57:10.507Z,5.68
2022-10-23T11:59:49.718Z,5.20
2022-10-23T12:02:42.732Z,5.45
2022-10-23T12:05:35.218Z,5.93
2022-10-23T12:08:05.955Z,5.25
2022-10-23T12:10:46.352Z,5.25
2022-10-23T12:13:38.716Z,5.43
2022-10-23T12:16:09.842Z,5.22
2022-10-23T12:18:50.773Z,5.97
2022-10-23T12:21:28.220Z,4.68
2022-10-23T12:24:40.222Z,5.53
2022-10-23T12:27:42.180Z,5.88
2022-10-23T12:30:43.207Z,5.57
2022-10-23T12:33:21.798Z,5.70
2022-10-23T12:35:52.114Z,5.60
2022-10-23T12:40:55.793Z,5.97
2022-10-23T12:43:30.449Z,5.85
2022-10-23T12:46:21.319Z,5.07
2022-10-23T12:48:53.735Z,5.32
2022-10-23T12:51:30.172Z,5.32
2022-10-23T12:53:58.027Z,5.05
2022-10-23T12:56:28.521Z,5.50
2022-10-23T12:59:03.088Z,5.30
2022-10-23T13:01:33.388Z,5.25
2022-10-23T13:04:27.953Z,5.30
2022-10-23T13:06:58.011Z,5.63
2022-10-23T13:09:42.115Z,5.50
2022-10-23T13:12:36.493Z,5.43
2022-10-23T13:15:06.687Z,5.20
2022-10-23T13:20:34.744Z,4.88
2022-10-23T13:23:09.847Z,5.20
2022-10-23T13:25:39.487Z,5.82
2022-10-23T13:28:26.188Z,5.25
2022-10-23T13:31:05.124Z,5.95
2022-10-23T13:33:42.627Z,6.10
2022-10-23T13:36:16.763Z,5.95
2022-10-23T13:38:45.277Z,5.13
2022-10-23T13:41:19.661Z,5.88
2022-10-23T13:43:48.683Z,4.95
2022-10-23T13:46:22.650Z,5.53
2022-10-23T13:48:50.027Z,5.47
2022-10-23T13:51:31.085Z,5.80
2022-10-23T13:53:58.916Z,4.82
2022-10-23T13:56:28.681Z,5.25
2022-10-23T13:58:58.170Z,5.50
2022-10-23T14:01:28.336Z,4.80
2022-10-23T14:03:58.326Z,5.68
2022-10-23T14:06:26.671Z,5.28
2022-10-23T14:08:53.973Z,5.07
2022-10-23T14:11:22.273Z,5.10
2022-10-23T14:13:50.428Z,5.07
2022-10-23T14:16:19.990Z,5.38
2022-10-23T14:18:47.638Z,5.43
2022-10-23T14:21:17.856Z,5.00
2022-10-23T14:23:45.229Z,5.18
2022-10-23T14:26:15.641Z,4.90
2022-10-23T14:28:43.497Z,5.10
2022-10-23T14:31:16.452Z,4.47
2022-10-23T14:33:45.247Z,5.10
2022-10-23T14:38:49.690Z,4.50
2022-10-23T14:41:18.908Z,4.25
2022-10-23T14:43:46.177Z,4.47
2022-10-23T14:46:15.979Z,4.47
2022-10-23T14:48:46.265Z,4.40
2022-10-23T14:51:19.704Z,4.93
2022-10-23T14:53:47.574Z,5.97
2022-10-23T14:56:15.658Z,6.20
2022-10-23T14:58:43.535Z,7.20
2022-10-23T15:01:10.926Z,8.60
2022-10-23T15:03:39.112Z,6.45
2022-10-23T15:06:08.078Z,6.25
2022-10-23T15:08:36.265Z,6.55
2022-10-23T15:11:06.710Z,5.80
2022-10-23T15:13:36.589Z,8.60
2022-10-23T15:16:09.264Z,6.88
2022-10-23T15:21:09.220Z,6.18
2022-10-23T15:23:39.367Z,7.38
2022-10-23T15:28:39.500Z,6.57
2022-10-23T15:31:07.212Z,7.28
2022-10-23T15:33:34.618Z,7.85
2022-10-23T15:36:02.050Z,7.35
2022-10-23T15:38:29.799Z,8.38
2022-10-23T15:41:04.129Z,7.50
2022-10-23T15:43:31.627Z,7.50
2022-10-23T15:45:59.130Z,8.40
2022-10-23T15:48:26.936Z,7.70
2022-10-23T15:50:55.932Z,8.10
2022-10-23T15:53:23.461Z,7.63
2022-10-23T15:55:50.829Z,8.55
2022-10-23T15:58:18.334Z,8.48
2022-10-23T16:00:46.299Z,9.15
2022-10-23T16:03:13.659Z,8.20
2022-10-23T16:05:43.765Z,9.32
2022-10-23T16:08:11.189Z,8.63
2022-10-23T16:10:42.794Z,9.23
2022-10-23T16:13:10.309Z,10.25
2022-10-23T16:15:41.138Z,9.13
2022-10-23T16:18:09.620Z,10.00
2022-10-23T16:20:40.963Z,9.32
2022-10-23T16:23:10.143Z,9.88
2022-10-23T16:25:38.455Z,10.05
2022-10-23T16:28:06.041Z,10.75
2022-10-23T16:30:35.937Z,9.20
2022-10-23T16:33:04.013Z,10.40
2022-10-23T16:35:31.452Z,8.57
2022-10-23T16:38:08.019Z,9.02
2022-10-23T16:40:35.356Z,8.82
2022-10-23T16:43:29.851Z,9.05
2022-10-23T16:46:22.234Z,9.35
2022-10-23T16:48:51.167Z,9.27
2022-10-23T16:51:21.258Z,8.93
2022-10-23T16:53:49.456Z,9.27
2022-10-23T16:56:20.406Z,9.13
2022-10-23T16:58:47.895Z,8.32
2022-10-23T17:01:23.616Z,8.80
2022-10-23T17:03:52.513Z,11.38
2022-10-23T17:06:26.758Z,8.75
2022-10-23T17:08:55.523Z,9.05
2022-10-23T17:11:26.023Z,8.88
2022-10-23T17:14:02.383Z,8.67
2022-10-23T17:16:32.275Z,13.40
2022-10-23T17:19:00.642Z,11.38
2022-10-23T17:21:36.157Z,10.32
2022-10-23T17:24:04.390Z,10.90
2022-10-23T17:26:32.613Z,10.27
2022-10-23T17:29:02.124Z,14.02
2022-10-23T17:31:34.799Z,9.83
2022-10-23T17:34:06.537Z,11.52
2022-10-23T17:36:37.162Z,12.45
2022-10-23T17:39:06.535Z,10.05
2022-10-23T17:41:34.585Z,10.68
2022-10-23T17:44:02.378Z,9.98
2022-10-23T17:46:30.527Z,11.38
2022-10-23T17:51:35.111Z,10.95
2022-10-23T17:54:10.856Z,10.73
2022-10-23T17:56:40.842Z,9.27
2022-10-23T17:59:12.918Z,10.73
2022-10-23T18:01:40.935Z,9.55
2022-10-23T18:04:08.761Z,10.40
2022-10-23T18:06:41.551Z,10.00
2022-10-23T18:09:08.967Z,9.75
2022-10-23T18:11:42.610Z,9.50
2022-10-23T18:14:14.884Z,8.82
2022-10-23T18:16:42.375Z,8.43
2022-10-23T18:19:10.734Z,8.95
2022-10-23T18:21:40.312Z,8.70
2022-10-23T18:24:08.615Z,8.55
2022-10-23T18:26:38.699Z,9.27
2022-10-23T18:29:09.993Z,8.88
2022-10-23T18:31:37.976Z,9.98
2022-10-23T18:34:11.078Z,8.68
2022-10-23T18:36:40.855Z,10.45
2022-10-23T18:39:11.419Z,9.57
2022-10-23T18:41:41.969Z,9.80
2022-10-23T18:44:10.463Z,9.88
2022-10-23T18:46:43.537Z,10.82
2022-10-23T18:49:12.403Z,10.75
2022-10-23T18:51:40.167Z,9.95
2022-10-23T18:54:11.888Z,10.93
2022-10-23T18:56:40.128Z,9.88
2022-10-23T18:59:12.201Z,9.90
2022-10-23T19:01:39.845Z,9.57
2022-10-23T19:04:09.301Z,10.20
2022-10-23T19:06:39.446Z,10.55
2022-10-23T19:09:09.029Z,9.40
2022-10-23T19:11:37.921Z,10.00
2022-10-23T19:14:05.801Z,9.13
2022-10-23T19:17:05.809Z,9.10
2022-10-23T19:19:44.895Z,9.07
2022-10-23T19:22:14.269Z,8.88
2022-10-23T19:25:04.373Z,9.15
2022-10-23T19:27:32.363Z,9.40
2022-10-23T19:30:03.963Z,9.55
2022-10-23T19:32:31.678Z,9.48
2022-10-23T19:35:00.454Z,9.70
2022-10-23T19:37:28.584Z,9.57
2022-10-23T19:39:56.748Z,9.35
2022-10-23T19:42:24.441Z,8.52
2022-10-23T19:44:51.971Z,9.00
2022-10-23T19:47:21.569Z,9.00
2022-10-23T19:49:52.145Z,9.35
2022-10-23T19:52:19.959Z,9.68
2022-10-23T19:54:47.628Z,8.82
2022-10-23T19:57:17.053Z,9.27
2022-10-23T19:59:51.052Z,9.60
2022-10-23T20:02:19.918Z,9.35
2022-10-23T20:04:47.741Z,8.95
2022-10-23T20:07:15.102Z,8.85
2022-10-23T20:09:42.743Z,8.98
2022-10-23T20:12:10.170Z,8.02
2022-10-23T20:14:37.682Z,9.20
2022-10-23T20:17:05.308Z,9.02
2022-10-23T20:19:32.628Z,9.00
2022-10-23T20:22:01.307Z,7.82
2022-10-23T20:24:29.187Z,8.73
2022-10-23T20:26:57.828Z,8.55
2022-10-23T20:29:25.783Z,9.00
2022-10-23T20:31:53.307Z,9.02
2022-10-23T20:34:21.218Z,9.57
2022-10-23T20:36:49.995Z,8.13
2022-10-23T20:39:21.606Z,8.18
2022-10-23T20:41:49.071Z,8.38
2022-10-23T20:46:51.230Z,8.27
2022-10-23T20:49:19.201Z,9.25
2022-10-23T20:51:54.931Z,8.20
2022-10-23T20:54:25.558Z,7.90
2022-10-23T20:56:52.976Z,8.57
2022-10-23T20:59:20.433Z,8.05
2022-10-23T21:01:50.503Z,7.75
2022-10-23T21:04:20.318Z,7.70
2022-10-23T21:07:08.804Z,7.53
2022-10-23T21:09:38.195Z,10.05
2022-10-23T21:12:06.888Z,9.38
2022-10-23T21:14:34.943Z,8.52
2022-10-23T21:17:02.707Z,10.38
2022-10-23T21:19:31.123Z,8.75
2022-10-23T21:21:59.267Z,7.97
2022-10-23T21:24:27.437Z,8.30
2022-10-23T21:26:54.784Z,7.32
2022-10-23T21:29:22.205Z,9.02
2022-10-23T21:31:57.448Z,11.20
2022-10-23T21:34:26.808Z,10.43
2022-10-23T21:37:11.905Z,9.55
2022-10-23T21:39:41.590Z,8.98
2022-10-23T21:42:09.668Z,9.07
2022-10-23T21:44:37.038Z,9.95
2022-10-23T21:47:04.570Z,9.00
2022-10-23T21:49:31.963Z,8.48
2022-10-23T21:51:59.499Z,8.80
2022-10-23T21:54:27.131Z,9.65
2022-10-23T21:56:54.997Z,10.82
2022-10-23T21:59:27.696Z,11.35
2022-10-23T22:01:58.002Z,9.88
2022-10-23T22:04:25.542Z,10.27
2022-10-23T22:06:53.456Z,12.18
2022-10-23T22:09:21.893Z,11.40
2022-10-23T22:11:51.097Z,10.80
2022-10-23T22:14:19.034Z,9.15
2022-10-23T22:16:47.057Z,9.60
2022-10-23T22:19:16.173Z,9.40
2022-10-23T22:21:43.760Z,10.63
2022-10-23T22:24:11.402Z,11.10
2022-10-23T22:26:42.485Z,11.27
2022-10-23T22:29:15.906Z,12.88
2022-10-23T22:31:45.757Z,12.13
2022-10-23T22:34:47.963Z,11.32
2022-10-23T22:37:13.213Z,11.07
2022-10-23T22:39:41.346Z,11.00
2022-10-23T22:42:09.185Z,10.00
2022-10-23T22:44:36.462Z,10.27
2022-10-23T22:47:04.341Z,10.10
2022-10-23T22:49:31.664Z,9.60
2022-10-23T22:51:59.569Z,10.48
2022-10-23T22:54:26.962Z,11.02
2022-10-23T22:56:54.649Z,9.88
2022-10-23T22:59:21.988Z,8.65
2022-10-23T23:01:50.560Z,9.02
2022-10-23T23:07:09.842Z,9.85
2022-10-23T23:09:38.898Z,10.48
2022-10-23T23:12:07.680Z,10.10
2022-10-23T23:14:35.680Z,10.50
2022-10-23T23:17:03.461Z,10.88
2022-10-23T23:19:30.908Z,11.05
2022-10-23T23:21:59.857Z,9.60
2022-10-23T23:24:28.107Z,9.30
2022-10-23T23:26:55.603Z,9.25
2022-10-23T23:29:23.081Z,8.95
2022-10-23T23:31:50.778Z,9.50
2022-10-23T23:34:18.036Z,10.27
2022-10-23T23:36:45.424Z,10.45
2022-10-23T23:39:12.781Z,8.98
2022-10-23T23:41:40.096Z,9.18
2022-10-23T23:44:08.745Z,9.23
2022-10-23T23:46:36.071Z,9.95
2022-10-23T23:49:03.490Z,10.25
2022-10-23T23:51:30.890Z,9.85
2022-10-23T23:53:58.512Z,9.93
2022-10-23T23:56:26.170Z,10.07
2022-10-23T23:58:53.500Z,8.48
